Time;durP1;ratioP1;P1;durP2;ratioP2;P2;SDS_P1;SDS_P2;PMS_P1;PMS_P2;Temp;Humidity;BMP_temperature;BMP_pressure;BME280_temperature;BME280_humidity;BME280_pressure;Samples;Min_cycle;Max_cycle;Signal;HPM_P1;HPM_P2
2021/01/08 00:02:22;;;;;;;12.73;7.57;;;2.10;99.90;;;;;;4927338;28;20533;-80
2021/01/08 00:04:49;;;;;;;12.27;7.80;;;2.20;99.90;;;;;;4982598;28;20417;-80
2021/01/08 00:07:21;;;;;;;8.30;5.80;;;2.30;99.90;;;;;;5022996;28;20187;-80
2021/01/08 00:09:50;;;;;;;10.07;7.80;;;2.30;99.90;;;;;;5025516;28;20405;-80
2021/01/08 00:12:18;;;;;;;10.97;8.13;;;2.10;99.90;;;;;;5037453;28;20752;-80
2021/01/08 00:14:44;;;;;;;12.57;8.07;;;2.00;99.90;;;;;;5021667;28;20454;-80
2021/01/08 00:17:10;;;;;;;16.20;8.83;;;2.20;99.90;;;;;;4971545;28;20465;-80
2021/01/08 00:19:39;;;;;;;16.93;8.77;;;2.20;99.90;;;;;;5020239;28;20495;-80
2021/01/08 00:22:05;;;;;;;15.77;9.20;;;2.20;99.90;;;;;;5020500;28;20407;-80
2021/01/08 00:24:31;;;;;;;13.60;8.37;;;2.10;99.90;;;;;;5020650;28;20471;-80
2021/01/08 00:27:02;;;;;;;17.80;7.90;;;2.20;99.90;;;;;;5038519;28;20206;-77
2021/01/08 00:29:29;;;;;;;10.50;7.27;;;2.00;99.90;;;;;;5039243;28;20434;-78
2021/01/08 00:31:56;;;;;;;11.10;5.73;;;2.00;99.90;;;;;;5022848;28;20426;-77
2021/01/08 00:34:22;;;;;;;13.93;8.00;;;2.10;99.90;;;;;;5036821;28;20419;-79
2021/01/08 00:36:50;;;;;;;18.50;8.10;;;2.30;99.90;;;;;;5037771;28;20429;-78
2021/01/08 00:39:17;;;;;;;15.23;8.57;;;2.40;99.90;;;;;;5024575;28;20168;-79
2021/01/08 00:41:47;;;;;;;10.17;7.63;;;2.10;99.90;;;;;;5070898;28;20390;-77
2021/01/08 00:44:13;;;;;;;9.00;5.33;;;2.00;99.90;;;;;;5084762;28;20405;-77
2021/01/08 00:46:40;;;;;;;16.60;8.90;;;2.00;99.90;;;;;;5103314;28;20414;-77
2021/01/08 00:49:07;;;;;;;8.30;6.87;;;2.20;99.90;;;;;;5045766;28;20407;-77
2021/01/08 00:51:34;;;;;;;11.40;7.80;;;2.40;99.90;;;;;;5078422;28;20403;-77
2021/01/08 00:54:03;;;;;;;9.23;5.73;;;2.20;99.90;;;;;;5055379;28;20465;-80
2021/01/08 00:56:31;;;;;;;8.80;7.23;;;2.30;99.90;;;;;;5046064;28;20475;-80
2021/01/08 00:58:58;;;;;;;9.97;7.63;;;2.30;99.90;;;;;;5045979;28;20437;-80
2021/01/08 01:01:24;;;;;;;12.00;7.00;;;2.10;99.90;;;;;;5063481;28;20402;-80
2021/01/08 01:03:50;;;;;;;10.80;7.73;;;2.10;99.90;;;;;;5047072;28;20418;-80
2021/01/08 01:06:26;;;;;;;11.60;8.43;;;1.90;99.90;;;;;;5064453;28;20433;-79
2021/01/08 01:08:53;;;;;;;14.40;6.60;;;2.10;99.90;;;;;;5048952;28;20180;-80
2021/01/08 01:11:20;;;;;;;11.20;6.40;;;2.10;99.90;;;;;;5047556;28;20476;-80
2021/01/08 01:13:49;;;;;;;8.37;5.80;;;2.20;99.90;;;;;;5052356;28;20418;-79
2021/01/08 01:16:16;;;;;;;7.83;6.03;;;2.00;99.90;;;;;;5015084;28;20835;-80
2021/01/08 01:18:45;;;;;;;9.97;5.70;;;1.90;99.90;;;;;;5015157;28;20432;-80
2021/01/08 01:21:12;;;;;;;8.30;5.50;;;1.90;99.90;;;;;;5049798;28;20431;-80
2021/01/08 01:23:38;;;;;;;9.70;6.37;;;1.90;99.90;;;;;;5034195;28;20928;-80
2021/01/08 01:26:07;;;;;;;11.67;6.80;;;2.10;99.90;;;;;;5035099;28;20415;-80
2021/01/08 01:28:36;;;;;;;10.40;6.23;;;1.90;99.90;;;;;;5025606;28;20523;-80
2021/01/08 01:31:03;;;;;;;8.47;5.10;;;2.00;99.90;;;;;;5024575;28;20424;-80
2021/01/08 01:33:29;;;;;;;8.83;5.73;;;2.10;99.90;;;;;;5007083;28;20400;-79
2021/01/08 01:35:56;;;;;;;6.10;5.10;;;2.20;99.90;;;;;;5023202;28;20431;-79
2021/01/08 01:38:26;;;;;;;7.30;6.07;;;2.10;99.90;;;;;;5008297;28;20467;-79
2021/01/08 01:40:51;;;;;;;4.10;3.53;;;2.30;99.90;;;;;;5006726;28;20391;-79
2021/01/08 01:43:17;;;;;;;5.80;4.30;;;2.20;99.90;;;;;;5007518;28;20782;-79
2021/01/08 01:45:44;;;;;;;5.97;4.53;;;2.10;99.90;;;;;;5040485;28;20642;-79
2021/01/08 01:48:11;;;;;;;8.07;4.83;;;2.20;99.90;;;;;;5039832;28;20212;-79
2021/01/08 01:50:40;;;;;;;5.73;5.07;;;1.90;99.90;;;;;;5006221;28;20449;-79
2021/01/08 01:53:07;;;;;;;4.27;3.87;;;2.00;99.90;;;;;;5023773;28;20502;-79
2021/01/08 01:55:33;;;;;;;5.83;5.10;;;1.90;99.90;;;;;;5022982;28;20395;-79
2021/01/08 01:58:02;;;;;;;6.40;4.33;;;2.00;99.90;;;;;;5023227;28;20450;-79
2021/01/08 02:00:33;;;;;;;8.33;4.50;;;2.00;99.90;;;;;;5054697;28;20416;-79
2021/01/08 02:03:34;;;;;;;5.20;4.40;;;2.00;99.90;;;;;;5047608;28;20395;-79
2021/01/08 02:06:05;;;;;;;4.40;4.00;;;2.00;99.90;;;;;;5027945;28;20496;-79
2021/01/08 02:08:32;;;;;;;8.67;5.77;;;2.10;99.90;;;;;;5044918;28;20467;-79
2021/01/08 02:11:06;;;;;;;7.93;5.60;;;2.00;99.90;;;;;;5028054;28;20891;-79
2021/01/08 02:13:57;;;;;;;3.90;3.60;;;2.00;99.90;;;;;;5044968;28;20430;-80
2021/01/08 02:16:25;;;;;;;6.57;5.47;;;2.00;99.90;;;;;;5048836;28;20469;-79
2021/01/08 02:18:53;;;;;;;7.60;4.73;;;2.10;99.90;;;;;;5028908;28;20402;-79
2021/01/08 02:21:27;;;;;;;5.83;4.23;;;2.00;99.90;;;;;;5045375;28;21007;-79
2021/01/08 02:24:25;;;;;;;7.37;5.13;;;1.90;99.90;;;;;;5027770;28;20393;-79
2021/01/08 02:26:54;;;;;;;4.83;4.23;;;1.90;99.90;;;;;;5031581;28;20435;-79
2021/01/08 02:29:43;;;;;;;5.20;4.67;;;2.00;99.90;;;;;;5009232;28;20411;-80
2021/01/08 02:32:10;;;;;;;9.83;5.03;;;2.10;99.90;;;;;;4986690;28;20413;-80
2021/01/08 02:34:36;;;;;;;6.57;5.00;;;2.10;99.90;;;;;;4987756;28;20417;-80
2021/01/08 02:37:03;;;;;;;4.73;4.13;;;2.10;99.90;;;;;;4972902;28;20448;-80
2021/01/08 02:39:30;;;;;;;6.97;4.73;;;2.00;99.90;;;;;;4955044;29;20407;-77
2021/01/08 02:42:03;;;;;;;5.00;4.57;;;1.90;99.90;;;;;;4887990;29;20431;-79
2021/01/08 02:44:37;;;;;;;7.83;5.40;;;1.70;99.90;;;;;;4851319;29;20427;-77
2021/01/08 02:47:03;;;;;;;9.43;5.37;;;1.90;99.90;;;;;;4845143;29;20429;-80
2021/01/08 02:49:30;;;;;;;6.97;5.60;;;2.00;99.90;;;;;;4870300;29;20475;-80
2021/01/08 02:51:59;;;;;;;7.27;4.90;;;2.00;99.90;;;;;;4840417;29;20411;-80
2021/01/08 02:54:26;;;;;;;5.27;4.77;;;2.20;99.90;;;;;;4868577;29;20499;-80
2021/01/08 02:56:57;;;;;;;9.43;5.87;;;2.00;99.90;;;;;;4852337;29;20492;-80
2021/01/08 02:59:25;;;;;;;4.60;3.40;;;2.10;99.90;;;;;;4871521;29;20393;-79
2021/01/08 03:01:53;;;;;;;6.47;3.20;;;1.80;99.90;;;;;;4872478;29;20422;-80
2021/01/08 03:04:20;;;;;;;4.00;3.40;;;1.90;99.90;;;;;;4857198;29;20419;-79
2021/01/08 03:06:47;;;;;;;8.67;4.30;;;1.70;99.90;;;;;;4870017;29;20498;-80
2021/01/08 03:09:16;;;;;;;5.00;4.50;;;1.70;99.90;;;;;;4870316;29;20435;-80
2021/01/08 03:11:51;;;;;;;3.87;3.60;;;1.80;99.90;;;;;;4907967;29;20445;-80
2021/01/08 03:14:18;;;;;;;5.40;4.87;;;1.80;99.90;;;;;;4944712;29;20431;-80
2021/01/08 03:16:44;;;;;;;6.37;4.57;;;1.80;99.90;;;;;;4963391;28;20459;-80
2021/01/08 03:19:13;;;;;;;6.67;4.63;;;1.80;99.90;;;;;;4948330;29;20396;-80
2021/01/08 03:21:43;;;;;;;5.37;3.63;;;1.60;99.90;;;;;;4968006;28;20387;-80
2021/01/08 03:24:11;;;;;;;5.40;4.30;;;1.60;99.90;;;;;;4936054;28;20406;-80
2021/01/08 03:26:38;;;;;;;6.60;5.10;;;1.70;99.90;;;;;;4968176;28;20779;-80
2021/01/08 03:29:04;;;;;;;7.10;5.90;;;1.70;99.90;;;;;;5002060;28;20408;-80
2021/01/08 03:31:33;;;;;;;5.40;4.73;;;1.60;99.90;;;;;;5042649;28;20502;-79
2021/01/08 03:33:59;;;;;;;4.90;4.50;;;1.70;99.90;;;;;;5009782;28;20426;-80
2021/01/08 03:36:26;;;;;;;3.93;3.17;;;1.60;99.90;;;;;;5025508;28;20814;-80
2021/01/08 03:38:58;;;;;;;4.10;3.80;;;1.70;99.90;;;;;;5026376;28;20410;-80
2021/01/08 03:41:26;;;;;;;6.10;5.10;;;1.70;99.90;;;;;;4992048;28;20411;-79
2021/01/08 03:43:52;;;;;;;6.13;5.53;;;1.60;99.90;;;;;;5025579;28;20593;-77
2021/01/08 03:46:28;;;;;;;6.67;5.37;;;1.70;99.90;;;;;;5052239;28;20398;-80
2021/01/08 03:48:55;;;;;;;4.03;3.63;;;1.60;99.90;;;;;;5029204;28;20458;-79
2021/01/08 03:51:22;;;;;;;5.37;3.50;;;1.80;99.90;;;;;;5045524;28;20405;-79
2021/01/08 03:53:49;;;;;;;4.80;4.13;;;1.70;99.90;;;;;;5060773;28;20460;-79
2021/01/08 03:56:15;;;;;;;7.90;5.00;;;1.80;99.90;;;;;;5065759;28;20451;-79
2021/01/08 03:58:44;;;;;;;8.97;5.50;;;1.70;99.90;;;;;;5059048;28;20458;-79
2021/01/08 04:01:10;;;;;;;6.23;4.30;;;1.90;99.90;;;;;;5059760;28;20480;-79
2021/01/08 04:03:35;;;;;;;8.67;5.17;;;2.20;99.90;;;;;;5042519;28;20198;-79
2021/01/08 04:06:01;;;;;;;5.67;5.10;;;2.30;99.90;;;;;;5039439;28;20207;-79
2021/01/08 04:08:28;;;;;;;6.90;4.70;;;2.20;99.90;;;;;;5025486;28;20180;-79
2021/01/08 04:10:54;;;;;;;5.70;5.13;;;2.20;99.90;;;;;;5044522;28;20695;-79
2021/01/08 04:13:21;;;;;;;8.40;5.77;;;1.90;99.90;;;;;;5042553;28;20407;-79
2021/01/08 04:15:48;;;;;;;12.60;6.53;;;1.80;99.90;;;;;;5059925;28;20225;-79
2021/01/08 04:18:15;;;;;;;6.87;5.03;;;1.80;99.90;;;;;;5043085;28;20403;-79
2021/01/08 04:20:47;;;;;;;7.97;6.60;;;1.80;99.90;;;;;;5030313;28;20444;-79
2021/01/08 04:23:17;;;;;;;6.20;5.27;;;1.90;99.90;;;;;;5062760;28;20529;-79
2021/01/08 04:25:43;;;;;;;7.17;5.57;;;1.80;99.90;;;;;;5022864;28;20872;-79
2021/01/08 04:28:08;;;;;;;8.80;5.80;;;1.70;99.90;;;;;;5006956;28;20432;-79
2021/01/08 04:30:36;;;;;;;6.90;5.70;;;1.60;99.90;;;;;;5002371;28;20182;-79
2021/01/08 04:33:02;;;;;;;5.90;4.30;;;1.70;99.90;;;;;;5002946;28;20509;-80
2021/01/08 04:35:31;;;;;;;7.17;5.60;;;1.60;99.90;;;;;;5002946;28;20746;-79
2021/01/08 04:37:56;;;;;;;17.03;5.87;;;1.40;99.90;;;;;;5001742;28;20289;-79
2021/01/08 04:40:22;;;;;;;11.40;7.00;;;1.40;99.90;;;;;;5010092;28;20448;-79
2021/01/08 04:42:51;;;;;;;8.00;6.30;;;1.60;99.90;;;;;;4985363;28;20577;-79
2021/01/08 04:45:20;;;;;;;6.63;5.70;;;1.60;99.90;;;;;;4983451;28;20495;-79
2021/01/08 04:48:06;;;;;;;11.03;7.17;;;1.80;99.90;;;;;;4993497;28;20236;-79
2021/01/08 04:50:32;;;;;;;11.87;6.30;;;1.80;99.90;;;;;;4984037;28;20424;-79
2021/01/08 04:53:00;;;;;;;9.23;7.17;;;1.50;99.90;;;;;;5005186;28;20448;-79
2021/01/08 04:55:28;;;;;;;7.10;6.50;;;1.70;99.90;;;;;;4964782;28;20488;-79
2021/01/08 04:58:01;;;;;;;8.63;6.13;;;1.80;99.90;;;;;;4980805;28;21013;-79
2021/01/08 05:00:27;;;;;;;7.30;6.13;;;2.00;99.90;;;;;;4970868;28;20388;-77
2021/01/08 05:02:56;;;;;;;9.87;6.57;;;1.90;99.90;;;;;;5000993;28;20395;-77
2021/01/08 05:05:24;;;;;;;10.47;6.90;;;1.90;99.90;;;;;;4985071;28;20408;-78
2021/01/08 05:07:50;;;;;;;9.00;6.63;;;1.70;99.90;;;;;;4981787;28;20509;-77
2021/01/08 05:10:17;;;;;;;7.03;5.00;;;1.60;99.90;;;;;;4948965;29;20447;-79
2021/01/08 05:12:49;;;;;;;9.90;7.40;;;1.70;99.90;;;;;;4946448;29;20235;-79
2021/01/08 05:15:16;;;;;;;9.30;6.67;;;1.60;99.90;;;;;;4945912;29;20514;-79
2021/01/08 05:17:53;;;;;;;9.30;5.90;;;1.70;99.90;;;;;;4930377;29;20975;-79
2021/01/08 05:20:32;;;;;;;10.17;6.70;;;1.80;99.90;;;;;;4930200;29;20434;-79
2021/01/08 05:23:00;;;;;;;12.00;9.17;;;1.90;99.90;;;;;;4946120;29;20415;-79
2021/01/08 05:25:29;;;;;;;10.07;6.33;;;1.90;99.90;;;;;;4943321;29;20938;-80
2021/01/08 05:28:18;;;;;;;8.10;6.60;;;1.70;99.90;;;;;;4864982;29;20423;-79
2021/01/08 05:30:45;;;;;;;9.37;6.60;;;1.90;99.90;;;;;;4867159;29;20428;-79
2021/01/08 05:33:16;;;;;;;7.30;5.13;;;1.80;99.90;;;;;;4898294;29;20416;-79
2021/01/08 05:35:43;;;;;;;7.17;4.60;;;1.80;99.90;;;;;;4941973;29;20477;-79
2021/01/08 05:38:12;;;;;;;9.17;7.03;;;1.50;99.90;;;;;;4942421;29;20427;-79
2021/01/08 05:40:41;;;;;;;10.57;6.63;;;1.70;99.90;;;;;;4946465;29;20407;-79
2021/01/08 05:43:10;;;;;;;8.10;5.07;;;1.70;99.90;;;;;;4927566;29;20404;-79
2021/01/08 05:45:41;;;;;;;7.30;5.97;;;1.70;99.90;;;;;;4941754;29;20456;-80
2021/01/08 05:48:09;;;;;;;6.97;5.87;;;1.60;99.90;;;;;;4941605;29;20421;-80
2021/01/08 05:50:36;;;;;;;6.33;4.83;;;1.60;99.90;;;;;;4926099;29;20825;-80
2021/01/08 05:53:08;;;;;;;10.90;5.10;;;1.60;99.90;;;;;;4941154;29;20463;-79
2021/01/08 05:55:39;;;;;;;6.80;5.87;;;1.60;99.90;;;;;;4941461;29;20415;-80
2021/01/08 05:58:21;;;;;;;10.50;5.87;;;1.40;99.90;;;;;;4903922;29;20469;-80
2021/01/08 06:00:58;;;;;;;8.83;6.30;;;1.50;99.90;;;;;;4888952;29;20496;-80
2021/01/08 06:03:25;;;;;;;9.17;6.77;;;1.50;99.90;;;;;;4885930;29;20935;-80
2021/01/08 06:05:54;;;;;;;10.40;5.83;;;1.50;99.90;;;;;;4887862;29;20406;-79
2021/01/08 06:08:25;;;;;;;10.13;7.90;;;1.60;99.90;;;;;;4897753;29;20407;-80
2021/01/08 06:10:57;;;;;;;9.40;6.27;;;1.60;99.90;;;;;;4932387;29;20563;-79
2021/01/08 06:13:28;;;;;;;13.60;6.63;;;1.60;99.90;;;;;;4923759;29;20449;-79
2021/01/08 06:15:55;;;;;;;9.87;6.20;;;1.70;99.90;;;;;;4924645;29;20421;-80
2021/01/08 06:18:23;;;;;;;9.53;6.70;;;1.80;99.90;;;;;;4952993;28;20421;-79
2021/01/08 06:20:52;;;;;;;12.13;7.60;;;1.60;99.90;;;;;;4969520;28;20507;-79
2021/01/08 06:23:32;;;;;;;9.57;5.90;;;1.30;99.90;;;;;;4931196;29;20400;-79
2021/01/08 06:26:01;;;;;;;9.03;6.47;;;1.50;99.90;;;;;;4962294;29;20868;-79
2021/01/08 06:28:49;;;;;;;10.90;6.50;;;1.30;99.90;;;;;;4935366;28;20437;-79
2021/01/08 06:31:36;;;;;;;13.00;5.60;;;1.60;99.90;;;;;;5001220;28;20425;-79
2021/01/08 06:34:07;;;;;;;8.83;6.13;;;1.50;99.90;;;;;;4984612;28;20420;-79
2021/01/08 06:36:34;;;;;;;9.37;5.10;;;1.50;99.90;;;;;;4969848;28;20457;-79
2021/01/08 06:39:09;;;;;;;10.70;8.53;;;1.70;99.90;;;;;;5001581;28;20517;-79
2021/01/08 06:41:40;;;;;;;9.93;6.37;;;1.70;99.90;;;;;;4962439;29;20430;-79
2021/01/08 06:44:21;;;;;;;10.53;5.90;;;1.70;99.90;;;;;;4962705;29;20425;-79
2021/01/08 06:46:52;;;;;;;8.53;5.60;;;1.70;99.90;;;;;;4976556;28;20850;-79
2021/01/08 06:49:20;;;;;;;13.07;7.63;;;1.60;99.90;;;;;;4961785;29;20470;-79
2021/01/08 06:51:49;;;;;;;9.40;6.60;;;1.60;99.90;;;;;;4958546;29;20906;-79
2021/01/08 06:54:14;;;;;;;7.97;6.00;;;1.60;99.90;;;;;;4961889;28;20491;-79
2021/01/08 06:56:42;;;;;;;11.77;6.57;;;1.50;99.90;;;;;;4965484;28;20210;-79
2021/01/08 06:59:17;;;;;;;13.03;8.40;;;1.60;99.90;;;;;;4986693;28;20256;-79
2021/01/08 07:02:14;;;;;;;12.20;7.20;;;1.70;99.90;;;;;;5008010;28;20423;-79
2021/01/08 07:04:42;;;;;;;9.53;7.50;;;1.80;99.90;;;;;;5022472;28;20896;-79
2021/01/08 07:07:13;;;;;;;10.43;6.23;;;1.90;99.90;;;;;;5001261;28;20443;-78
2021/01/08 07:09:40;;;;;;;9.60;6.43;;;1.40;99.90;;;;;;5011890;28;20442;-80
2021/01/08 07:12:11;;;;;;;8.43;6.00;;;1.50;99.90;;;;;;5013880;28;20430;-78
2021/01/08 07:14:38;;;;;;;8.60;6.77;;;1.50;99.90;;;;;;5033353;28;20437;-79
2021/01/08 07:17:06;;;;;;;14.00;7.87;;;1.60;99.90;;;;;;5057356;28;20486;-80
2021/01/08 07:19:33;;;;;;;15.37;7.97;;;1.60;99.90;;;;;;5041786;28;20446;-80
2021/01/08 07:22:07;;;;;;;13.10;6.70;;;1.60;99.90;;;;;;4980253;28;20444;-80
2021/01/08 07:24:37;;;;;;;11.27;6.87;;;1.50;99.90;;;;;;4965366;28;20441;-80
2021/01/08 07:27:25;;;;;;;6.33;5.20;;;1.50;99.90;;;;;;4967338;28;20441;-80
2021/01/08 07:30:04;;;;;;;13.13;7.77;;;1.30;99.90;;;;;;4941742;29;20459;-80
2021/01/08 07:32:38;;;;;;;20.00;7.87;;;1.40;99.90;;;;;;4906643;29;21038;-80
2021/01/08 07:35:17;;;;;;;12.30;8.63;;;1.60;99.90;;;;;;4906926;29;20499;-80
2021/01/08 07:38:13;;;;;;;16.13;7.83;;;1.50;99.90;;;;;;4908897;29;20211;-79
2021/01/08 07:40:55;;;;;;;8.93;6.07;;;1.70;99.90;;;;;;4945714;29;20507;-79
2021/01/08 07:43:36;;;;;;;10.33;6.73;;;1.40;99.90;;;;;;4886439;29;20424;-80
2021/01/08 07:46:03;;;;;;;11.43;6.93;;;1.50;99.90;;;;;;4868300;29;20526;-79
2021/01/08 07:48:34;;;;;;;9.97;6.03;;;1.50;99.90;;;;;;4878426;29;20934;-79
2021/01/08 07:51:04;;;;;;;10.77;6.10;;;1.40;99.90;;;;;;4875710;29;20482;-79
2021/01/08 07:53:50;;;;;;;10.00;7.60;;;1.60;99.90;;;;;;4924370;29;20471;-79
2021/01/08 07:56:26;;;;;;;7.90;5.07;;;1.50;99.90;;;;;;4943286;29;20840;-79
2021/01/08 07:59:03;;;;;;;10.43;7.43;;;1.50;99.90;;;;;;4941768;29;20435;-79
2021/01/08 08:01:34;;;;;;;7.60;5.80;;;1.50;99.90;;;;;;4973149;28;20437;-79
2021/01/08 08:04:03;;;;;;;11.10;6.73;;;1.70;99.90;;;;;;4994089;28;20424;-79
2021/01/08 08:06:30;;;;;;;7.17;5.47;;;1.70;99.90;;;;;;4995857;28;20406;-80
2021/01/08 08:09:00;;;;;;;13.20;6.97;;;1.80;99.90;;;;;;4975537;28;20402;-79
2021/01/08 08:11:34;;;;;;;13.97;7.17;;;1.60;99.90;;;;;;4979350;28;20436;-79
2021/01/08 08:14:01;;;;;;;10.20;6.90;;;1.70;99.90;;;;;;4984001;28;20427;-79
2021/01/08 08:16:35;;;;;;;12.30;8.30;;;1.80;99.90;;;;;;4983985;28;20508;-79
2021/01/08 08:19:23;;;;;;;11.07;7.10;;;1.90;99.90;;;;;;4983766;28;20445;-79
2021/01/08 08:21:51;;;;;;;18.63;8.67;;;1.80;99.90;;;;;;4970047;28;20517;-79
2021/01/08 08:24:19;;;;;;;9.70;6.80;;;1.80;99.90;;;;;;4961907;28;20442;-79
2021/01/08 08:26:48;;;;;;;12.10;5.73;;;2.00;99.90;;;;;;4956033;28;20478;-79
2021/01/08 08:29:15;;;;;;;13.83;7.30;;;1.90;99.90;;;;;;4947468;28;20462;-79
2021/01/08 08:31:46;;;;;;;13.87;7.77;;;1.90;99.90;;;;;;4981228;28;20225;-80
2021/01/08 08:34:14;;;;;;;16.60;7.80;;;1.80;99.90;;;;;;4981789;28;20481;-80
2021/01/08 08:36:42;;;;;;;9.13;6.30;;;1.80;99.90;;;;;;4972846;28;20443;-80
2021/01/08 08:39:13;;;;;;;10.97;7.10;;;2.00;99.90;;;;;;4964581;28;20405;-79
2021/01/08 08:41:44;;;;;;;9.97;5.70;;;1.80;99.90;;;;;;4977734;28;20875;-79
2021/01/08 08:44:16;;;;;;;9.40;6.83;;;2.10;99.90;;;;;;5021068;28;20416;-79
2021/01/08 08:46:57;;;;;;;10.87;6.17;;;1.90;99.90;;;;;;5032965;28;20446;-79
2021/01/08 08:49:46;;;;;;;7.87;5.17;;;1.90;99.90;;;;;;5041047;28;20420;-79
2021/01/08 08:52:27;;;;;;;12.67;7.37;;;1.90;99.90;;;;;;5023672;28;20430;-79
2021/01/08 08:54:54;;;;;;;8.50;6.00;;;2.00;99.90;;;;;;5055438;28;20432;-79
2021/01/08 08:57:25;;;;;;;6.00;5.30;;;1.90;99.90;;;;;;5061827;28;20475;-79
2021/01/08 08:59:52;;;;;;;15.93;6.00;;;2.00;99.90;;;;;;5060016;28;20472;-80
2021/01/08 09:02:27;;;;;;;11.40;9.10;;;2.00;99.90;;;;;;5048809;28;20493;-80
2021/01/08 09:04:54;;;;;;;13.53;6.87;;;2.00;99.90;;;;;;5057651;28;20446;-79
2021/01/08 09:07:50;;;;;;;7.90;5.90;;;1.90;99.90;;;;;;5061512;28;20424;-79
2021/01/08 09:10:26;;;;;;;8.03;7.23;;;2.00;99.90;;;;;;5022469;28;21071;-80
2021/01/08 09:13:15;;;;;;;10.93;6.20;;;1.90;99.90;;;;;;5003087;28;20430;-80
2021/01/08 09:15:55;;;;;;;10.73;7.90;;;2.00;99.90;;;;;;4986743;28;20535;-81
2021/01/08 09:18:37;;;;;;;12.40;6.67;;;2.00;99.90;;;;;;4987377;28;20444;-80
2021/01/08 09:21:17;;;;;;;7.97;5.17;;;2.10;99.90;;;;;;4999112;28;20988;-80
2021/01/08 09:23:46;;;;;;;8.77;6.00;;;2.10;99.90;;;;;;4986009;28;20436;-80
2021/01/08 09:26:33;;;;;;;18.93;8.27;;;2.10;99.90;;;;;;5002545;28;20618;-80
2021/01/08 09:29:01;;;;;;;10.10;7.83;;;2.10;99.90;;;;;;4951865;29;20447;-80
2021/01/08 09:31:44;;;;;;;6.77;5.60;;;2.00;99.90;;;;;;4960983;28;20445;-80
2021/01/08 09:34:12;;;;;;;11.37;6.63;;;2.10;99.90;;;;;;4967813;28;20450;-80
2021/01/08 09:36:48;;;;;;;11.60;6.57;;;2.10;99.90;;;;;;4935236;29;20549;-79
2021/01/08 09:39:14;;;;;;;7.83;6.10;;;2.10;99.90;;;;;;4949739;29;20450;-80
2021/01/08 09:41:42;;;;;;;12.10;7.07;;;1.90;99.90;;;;;;4946040;28;20430;-79
2021/01/08 09:44:12;;;;;;;13.33;7.40;;;2.00;99.90;;;;;;4970407;28;20608;-79
2021/01/08 09:46:57;;;;;;;12.13;7.40;;;2.00;99.90;;;;;;5001621;28;20415;-80
2021/01/08 09:49:48;;;;;;;6.80;5.70;;;2.00;99.90;;;;;;4974314;28;20536;-81
2021/01/08 09:52:14;;;;;;;9.00;6.73;;;1.90;99.90;;;;;;4953498;28;20444;-79
2021/01/08 09:54:48;;;;;;;10.13;6.03;;;2.00;99.90;;;;;;4944862;29;20427;-79
2021/01/08 09:57:35;;;;;;;15.50;8.23;;;2.10;99.90;;;;;;4966211;28;20470;-80
2021/01/08 10:00:07;;;;;;;10.50;5.13;;;2.20;99.90;;;;;;4932846;29;20450;-80
2021/01/08 10:02:41;;;;;;;11.07;6.70;;;2.10;99.90;;;;;;4913470;29;20413;-79
2021/01/08 10:05:29;;;;;;;8.97;6.37;;;2.20;99.90;;;;;;4907261;29;20482;-79
2021/01/08 10:07:57;;;;;;;9.23;6.77;;;2.30;99.90;;;;;;4894803;29;21001;-79
2021/01/08 10:10:44;;;;;;;10.23;5.90;;;2.00;99.90;;;;;;4904713;29;20442;-79
2021/01/08 10:13:19;;;;;;;7.80;5.27;;;2.40;99.90;;;;;;4883640;29;20477;-80
2021/01/08 10:15:49;;;;;;;6.63;5.70;;;2.10;99.90;;;;;;4893902;29;20450;-79
2021/01/08 10:18:21;;;;;;;6.73;5.10;;;2.10;99.90;;;;;;4929190;29;20494;-79
2021/01/08 10:20:55;;;;;;;9.57;6.50;;;2.10;99.90;;;;;;4937232;29;21022;-79
2021/01/08 10:23:25;;;;;;;6.70;6.00;;;2.20;99.90;;;;;;4945758;29;20493;-79
2021/01/08 10:25:52;;;;;;;6.93;4.90;;;2.00;99.90;;;;;;4957164;29;20435;-79
2021/01/08 10:28:22;;;;;;;8.10;5.23;;;1.80;99.90;;;;;;4967599;28;20689;-79
2021/01/08 10:30:50;;;;;;;19.63;8.10;;;1.90;99.90;;;;;;4957842;28;20468;-79
2021/01/08 10:33:27;;;;;;;8.93;6.50;;;2.00;99.90;;;;;;4956715;28;20482;-78
2021/01/08 10:35:55;;;;;;;7.77;6.40;;;1.90;99.90;;;;;;5001272;28;20399;-79
2021/01/08 10:38:27;;;;;;;8.73;4.80;;;1.90;99.90;;;;;;5016504;28;20466;-77
2021/01/08 10:41:17;;;;;;;7.60;6.10;;;2.00;99.90;;;;;;4990177;28;20520;-78
2021/01/08 10:43:44;;;;;;;14.37;7.03;;;2.10;99.90;;;;;;5002648;28;20889;-79
2021/01/08 10:46:13;;;;;;;6.50;5.90;;;2.30;99.90;;;;;;4989410;28;20453;-77
2021/01/08 10:49:02;;;;;;;12.23;7.17;;;2.20;99.90;;;;;;4999283;28;20441;-77
2021/01/08 10:51:40;;;;;;;9.70;6.83;;;2.30;99.90;;;;;;4962499;28;20491;-80
2021/01/08 10:54:15;;;;;;;6.30;5.03;;;2.10;99.90;;;;;;4963904;28;20481;-79
2021/01/08 10:56:43;;;;;;;11.47;7.83;;;2.30;99.90;;;;;;4967621;28;20470;-79
2021/01/08 10:59:13;;;;;;;11.13;5.90;;;2.10;99.90;;;;;;4977009;28;20426;-78
2021/01/08 11:01:59;;;;;;;7.60;6.43;;;2.00;99.90;;;;;;4980994;28;20434;-78
2021/01/08 11:04:25;;;;;;;7.07;5.53;;;1.90;99.90;;;;;;4934045;29;20441;-78
2021/01/08 11:06:59;;;;;;;6.30;4.73;;;1.90;99.90;;;;;;4927827;29;20441;-78
2021/01/08 11:09:34;;;;;;;8.83;7.27;;;2.20;99.90;;;;;;4845793;29;20465;-79
2021/01/08 11:12:04;;;;;;;10.33;7.73;;;2.20;99.90;;;;;;4878200;29;20442;-79
2021/01/08 11:14:33;;;;;;;7.57;6.40;;;2.40;99.90;;;;;;4889176;29;20426;-79
2021/01/08 11:17:39;;;;;;;10.50;6.57;;;2.40;99.90;;;;;;4912185;29;20473;-79
2021/01/08 11:20:09;;;;;;;7.83;5.10;;;2.40;99.90;;;;;;4895886;29;20465;-79
2021/01/08 11:22:36;;;;;;;7.90;6.00;;;2.10;99.90;;;;;;4912680;29;20442;-79
2021/01/08 11:25:03;;;;;;;8.80;5.67;;;2.50;99.90;;;;;;4913626;29;20513;-80
2021/01/08 11:27:33;;;;;;;5.90;4.90;;;2.20;99.90;;;;;;4906803;29;20857;-80
2021/01/08 11:30:01;;;;;;;4.53;4.07;;;2.30;99.90;;;;;;4921156;29;20448;-79
2021/01/08 11:32:29;;;;;;;11.67;6.50;;;2.50;99.90;;;;;;4879405;29;20530;-79
2021/01/08 11:35:02;;;;;;;7.37;4.90;;;2.80;99.90;;;;;;4924519;29;20445;-79
2021/01/08 11:37:33;;;;;;;6.03;4.53;;;3.10;99.90;;;;;;4943295;29;20454;-80
2021/01/08 11:40:06;;;;;;;4.57;4.10;;;3.20;99.90;;;;;;4911713;29;20468;-80
2021/01/08 11:42:36;;;;;;;7.40;4.47;;;3.30;99.90;;;;;;4944464;29;20458;-80
2021/01/08 11:45:05;;;;;;;5.30;4.57;;;3.30;99.90;;;;;;4906121;29;20425;-80
2021/01/08 11:47:35;;;;;;;8.67;5.87;;;3.10;99.90;;;;;;4908154;29;20448;-80
2021/01/08 11:50:04;;;;;;;5.50;4.90;;;3.20;99.90;;;;;;4929440;28;20527;-78
2021/01/08 11:52:33;;;;;;;6.87;4.80;;;3.20;99.90;;;;;;4953744;28;20554;-79
2021/01/08 11:55:30;;;;;;;5.60;5.03;;;3.30;99.90;;;;;;4951315;29;20435;-79
2021/01/08 11:57:56;;;;;;;4.80;3.77;;;3.40;99.90;;;;;;4910151;29;20543;-78
2021/01/08 12:00:45;;;;;;;4.63;4.17;;;3.50;99.90;;;;;;4950447;28;20476;-79
2021/01/08 12:03:31;;;;;;;5.50;4.90;;;3.50;99.90;;;;;;4968993;28;20191;-79
2021/01/08 12:05:59;;;;;;;5.80;4.10;;;3.20;99.90;;;;;;4921800;29;20444;-79
2021/01/08 12:08:33;;;;;;;8.20;5.17;;;3.30;99.90;;;;;;4917994;29;20439;-78
2021/01/08 12:11:18;;;;;;;5.33;4.37;;;3.40;99.90;;;;;;4906078;29;20450;-79
2021/01/08 12:14:04;;;;;;;3.63;3.33;;;3.40;99.90;;;;;;4913984;29;20517;-78
2021/01/08 12:16:31;;;;;;;5.73;4.20;;;3.50;99.90;;;;;;4912152;29;20235;-79
2021/01/08 12:19:03;;;;;;;6.40;4.80;;;3.40;99.90;;;;;;4923915;29;20457;-79
2021/01/08 12:21:45;;;;;;;5.60;4.00;;;3.40;99.90;;;;;;4905261;29;20417;-78
2021/01/08 12:24:31;;;;;;;3.90;3.53;;;3.50;99.90;;;;;;4852064;29;20452;-77
2021/01/08 12:26:59;;;;;;;4.90;4.40;;;3.60;99.90;;;;;;4829894;29;20459;-79
2021/01/08 12:29:29;;;;;;;5.33;4.57;;;3.70;99.90;;;;;;4828614;29;20427;-78
2021/01/08 12:32:00;;;;;;;3.30;3.00;;;3.50;99.90;;;;;;4838491;29;20451;-79
2021/01/08 12:34:26;;;;;;;4.80;3.80;;;3.60;99.90;;;;;;4832819;29;20449;-78
2021/01/08 12:36:52;;;;;;;5.40;4.10;;;3.10;99.90;;;;;;4859195;29;20541;-79
2021/01/08 12:39:22;;;;;;;5.10;4.60;;;3.40;99.90;;;;;;4872685;29;20236;-78
2021/01/08 12:41:49;;;;;;;3.07;2.83;;;3.60;99.90;;;;;;4868893;29;20439;-79
2021/01/08 12:44:21;;;;;;;6.73;4.73;;;3.70;99.90;;;;;;4888626;29;20590;-79
2021/01/08 12:46:47;;;;;;;5.20;3.37;;;3.40;99.90;;;;;;4900474;29;20468;-79
2021/01/08 12:49:19;;;;;;;4.90;3.70;;;3.60;99.90;;;;;;4870236;29;20491;-79
2021/01/08 12:51:49;;;;;;;5.60;4.33;;;3.60;99.90;;;;;;4880898;29;20973;-80
2021/01/08 12:54:19;;;;;;;12.10;4.00;;;3.70;99.90;;;;;;4888488;29;20236;-80
2021/01/08 12:56:46;;;;;;;5.53;4.20;;;3.80;99.90;;;;;;4888042;29;20470;-79
2021/01/08 12:59:19;;;;;;;4.77;3.37;;;3.50;99.90;;;;;;4920811;29;20448;-77
2021/01/08 13:01:55;;;;;;;6.33;4.07;;;3.60;99.90;;;;;;4940770;29;20447;-77
2021/01/08 13:04:23;;;;;;;3.40;3.00;;;3.70;99.90;;;;;;4969810;29;20433;-77
2021/01/08 13:06:52;;;;;;;3.27;2.97;;;3.70;99.90;;;;;;4963898;29;20589;-77
2021/01/08 13:09:21;;;;;;;4.37;2.80;;;3.70;99.90;;;;;;4864635;29;20420;-79
2021/01/08 13:11:48;;;;;;;3.50;3.30;;;3.70;99.90;;;;;;4899188;29;20411;-77
2021/01/08 13:14:16;;;;;;;5.53;3.80;;;3.70;99.90;;;;;;4883188;29;20194;-77
2021/01/08 13:16:43;;;;;;;3.20;2.90;;;3.80;99.90;;;;;;4885811;29;20872;-78